Time;durP1;ratioP1;P1;durP2;ratioP2;P2;SDS_P1;SDS_P2;PMS_P1;PMS_P2;Temp;Humidity;BMP_temperature;BMP_pressure;BME280_temperature;BME280_humidity;BME280_pressure;Samples;Min_cycle;Max_cycle;Signal;HPM_P1;HPM_P2
2021/09/04 01:25:57;;;;;;;28.58;17.13;;;;;;;11.84;100.00;100952.09;2614205;36;20541;-60
2021/09/04 01:28:24;;;;;;;28.75;18.38;;;;;;;11.56;100.00;100957.34;2614155;36;20058;-58
2021/09/04 01:30:51;;;;;;;28.70;19.30;;;;;;;11.50;100.00;100954.59;2615061;31;20042;-60
2021/09/04 01:33:18;;;;;;;29.95;19.52;;;;;;;11.45;100.00;100957.03;2615104;36;20038;-58
2021/09/04 01:35:46;;;;;;;28.45;18.05;;;;;;;11.40;100.00;100951.78;2615178;31;20652;-60
2021/09/04 01:38:13;;;;;;;31.90;20.02;;;;;;;11.66;100.00;100957.59;2615486;31;20069;-58
2021/09/04 01:40:40;;;;;;;29.63;18.58;;;;;;;11.80;100.00;100954.53;2616755;31;20061;-58
2021/09/04 01:43:07;;;;;;;27.73;18.48;;;;;;;12.12;100.00;100955.34;2614953;36;20030;-55
2021/09/04 01:45:34;;;;;;;31.30;19.83;;;;;;;11.92;100.00;100947.13;2615547;31;20038;-58
2021/09/04 01:48:01;;;;;;;29.92;19.23;;;;;;;11.66;100.00;100944.78;2614918;36;20034;-59
2021/09/04 01:50:29;;;;;;;31.83;18.80;;;;;;;11.70;100.00;100948.31;2615222;31;20061;-60
2021/09/04 01:52:56;;;;;;;29.15;18.88;;;;;;;11.52;100.00;100947.81;2614608;36;20038;-60
2021/09/04 01:55:23;;;;;;;33.70;20.02;;;;;;;11.31;100.00;100943.84;2614794;36;20061;-58
2021/09/04 01:57:51;;;;;;;26.55;18.27;;;;;;;11.52;100.00;100951.25;2614834;36;20034;-58
2021/09/04 02:00:18;;;;;;;30.63;18.67;;;;;;;11.59;100.00;100949.72;2615065;36;20085;-60
2021/09/04 02:02:45;;;;;;;30.20;19.30;;;;;;;11.51;100.00;100946.97;2614930;36;20034;-56
2021/09/04 02:05:13;;;;;;;29.55;19.88;;;;;;;11.57;100.00;100941.97;2615563;31;20597;-58
2021/09/04 02:07:40;;;;;;;30.58;18.95;;;;;;;11.54;100.00;100943.59;2616595;31;20439;-60
2021/09/04 02:10:08;;;;;;;36.25;20.92;;;;;;;11.41;100.00;100940.69;2614842;36;20038;-60
2021/09/04 02:12:36;;;;;;;34.70;21.65;;;;;;;11.61;100.00;100942.94;2614938;36;20038;-61
2021/09/04 02:15:08;;;;;;;32.97;21.00;;;;;;;11.55;100.00;100941.06;2615380;31;20061;-61
2021/09/04 02:17:35;;;;;;;34.13;20.50;;;;;;;11.56;100.00;100931.69;2615342;31;20054;-60
2021/09/04 02:20:04;;;;;;;31.75;20.40;;;;;;;11.50;100.00;100941.78;2615159;31;20078;-60
2021/09/04 02:22:31;;;;;;;30.85;19.45;;;;;;;11.53;100.00;100929.91;2614700;36;20027;-61
2021/09/04 02:24:58;;;;;;;29.75;18.65;;;;;;;11.57;100.00;100936.84;2614532;36;20031;-60
2021/09/04 02:27:25;;;;;;;31.08;18.83;;;;;;;11.63;100.00;100931.88;2614816;36;20034;-60
2021/09/04 02:29:52;;;;;;;33.17;20.80;;;;;;;11.59;100.00;100932.63;2614536;36;20034;-59
2021/09/04 02:32:19;;;;;;;36.15;20.38;;;;;;;11.25;100.00;100925.75;2615295;31;20030;-60
2021/09/04 02:34:47;;;;;;;35.67;22.23;;;;;;;11.08;100.00;100930.41;2615219;31;20590;-58
2021/09/04 02:37:14;;;;;;;34.17;22.15;;;;;;;11.29;100.00;100927.56;2615190;31;20042;-60
2021/09/04 02:39:42;;;;;;;36.22;22.85;;;;;;;11.12;100.00;100927.13;2614980;36;20030;-59
2021/09/04 02:42:09;;;;;;;34.40;22.27;;;;;;;11.14;100.00;100928.03;2614844;36;20030;-60
2021/09/04 02:44:36;;;;;;;40.83;23.63;;;;;;;11.53;100.00;100924.78;2614579;36;20035;-61
2021/09/04 02:47:03;;;;;;;36.45;23.33;;;;;;;11.64;100.00;100928.47;2614804;36;20069;-60
2021/09/04 02:49:30;;;;;;;42.67;25.90;;;;;;;11.70;100.00;100931.22;2614623;36;20026;-61
2021/09/04 02:51:57;;;;;;;40.17;23.33;;;;;;;11.25;100.00;100930.88;2615208;31;20758;-59
2021/09/04 02:54:24;;;;;;;47.13;28.02;;;;;;;11.03;100.00;100934.56;2614753;36;20035;-60
2021/09/04 02:56:51;;;;;;;46.15;26.98;;;;;;;10.89;100.00;100935.88;2615189;31;20038;-62
2021/09/04 02:59:19;;;;;;;42.20;25.55;;;;;;;10.86;100.00;100928.06;2614783;36;20150;-60
2021/09/04 03:01:46;;;;;;;40.55;24.95;;;;;;;10.85;100.00;100926.34;2615162;31;20606;-60
2021/09/04 03:04:13;;;;;;;41.75;23.92;;;;;;;11.00;100.00;100928.47;2615062;31;20022;-58
2021/09/04 03:06:42;;;;;;;42.13;25.95;;;;;;;10.79;100.00;100936.44;2614888;36;20065;-58
2021/09/04 03:09:09;;;;;;;47.28;27.58;;;;;;;10.68;100.00;100936.13;2614972;31;20057;-60
2021/09/04 03:11:36;;;;;;;43.47;25.25;;;;;;;10.66;100.00;100936.06;2614748;36;21061;-59
2021/09/04 03:14:03;;;;;;;48.72;25.00;;;;;;;10.82;100.00;100944.22;2615307;31;20034;-59
2021/09/04 03:16:30;;;;;;;41.05;25.35;;;;;;;10.79;100.00;100933.88;2614903;31;20038;-57
2021/09/04 03:18:57;;;;;;;44.65;24.40;;;;;;;10.85;100.00;100940.03;2614724;31;20605;-56
2021/09/04 03:21:24;;;;;;;40.95;25.70;;;;;;;10.96;100.00;100936.09;2614761;36;20042;-61
2021/09/04 03:23:51;;;;;;;48.38;26.85;;;;;;;10.85;100.00;100941.72;2614698;36;20023;-58
2021/09/04 03:26:19;;;;;;;43.35;25.73;;;;;;;10.70;100.00;100940.47;2616474;31;20597;-62
2021/09/04 03:28:46;;;;;;;46.92;25.23;;;;;;;10.66;100.00;100938.63;2615482;31;20034;-59
2021/09/04 03:31:13;;;;;;;38.88;24.25;;;;;;;10.78;100.00;100938.13;2616477;31;20031;-61
2021/09/04 03:33:40;;;;;;;44.53;24.75;;;;;;;10.93;100.00;100946.25;2616191;36;20445;-60
2021/09/04 03:36:07;;;;;;;40.28;24.67;;;;;;;10.93;100.00;100943.69;2617032;31;20038;-60
2021/09/04 03:38:34;;;;;;;46.78;25.42;;;;;;;10.80;100.00;100945.84;2616458;36;20022;-59
2021/09/04 03:41:01;;;;;;;41.63;24.63;;;;;;;10.78;100.00;100944.94;2618637;31;20034;-60
2021/09/04 03:43:29;;;;;;;50.60;25.90;;;;;;;11.06;100.00;100942.34;2616587;36;20579;-61
2021/09/04 03:45:56;;;;;;;41.75;25.08;;;;;;;10.73;100.00;100942.25;2616701;36;20457;-61
2021/09/04 03:48:23;;;;;;;42.28;24.70;;;;;;;10.74;100.00;100941.41;2617552;36;20675;-59
2021/09/04 03:50:50;;;;;;;46.58;25.55;;;;;;;10.74;100.00;100940.56;2618059;31;20125;-61
2021/09/04 03:53:18;;;;;;;45.75;25.83;;;;;;;10.71;100.00;100942.19;2616509;36;20081;-61
2021/09/04 03:55:45;;;;;;;45.85;25.65;;;;;;;10.93;100.00;100946.25;2618037;31;20038;-59
2021/09/04 03:58:12;;;;;;;43.03;24.70;;;;;;;11.09;100.00;100945.00;2616605;31;20038;-60
2021/09/04 04:00:39;;;;;;;47.60;26.38;;;;;;;11.10;100.00;100945.84;2616621;31;20049;-62
2021/09/04 04:03:06;;;;;;;48.58;24.85;;;;;;;11.24;100.00;100948.81;2616083;36;20031;-61
2021/09/04 04:05:33;;;;;;;45.35;25.52;;;;;;;11.08;100.00;100950.91;2616415;31;20030;-61
2021/09/04 04:08:00;;;;;;;49.65;27.83;;;;;;;11.31;100.00;100948.13;2616417;31;20034;-59
2021/09/04 04:10:27;;;;;;;66.95;25.58;;;;;;;11.42;100.00;100956.97;2616905;31;20031;-60
2021/09/04 04:12:54;;;;;;;53.08;28.63;;;;;;;11.35;100.00;100952.50;2616458;36;20455;-59
2021/09/04 04:15:22;;;;;;;62.85;28.35;;;;;;;11.25;100.00;100950.53;2615760;36;20030;-61
2021/09/04 04:17:49;;;;;;;51.10;27.42;;;;;;;11.48;100.00;100957.13;2615422;36;20053;-61
2021/09/04 04:20:16;;;;;;;46.92;25.95;;;;;;;11.40;100.00;100954.34;2615339;36;20038;-61
2021/09/04 04:22:43;;;;;;;45.67;26.75;;;;;;;11.28;100.00;100959.19;2616130;31;20038;-61
2021/09/04 04:25:11;;;;;;;54.67;25.85;;;;;;;11.46;100.00;100951.97;2615385;36;20027;-60
2021/09/04 04:27:39;;;;;;;105.70;27.00;;;;;;;11.53;100.00;100964.94;2615420;31;20058;-61
2021/09/04 04:30:06;;;;;;;46.85;24.77;;;;;;;11.69;100.00;100961.94;2615675;31;20031;-61
2021/09/04 04:32:34;;;;;;;63.85;24.58;;;;;;;11.66;100.00;100965.31;2615622;36;20609;-61
2021/09/04 04:35:01;;;;;;;45.13;23.65;;;;;;;11.71;100.00;100968.84;2615399;36;20046;-62
2021/09/04 04:37:28;;;;;;;100.13;26.42;;;;;;;11.49;100.00;100969.13;2616106;31;20041;-59
2021/09/04 04:39:56;;;;;;;54.78;26.15;;;;;;;11.82;100.00;100970.81;2616226;31;20035;-62
2021/09/04 04:42:23;;;;;;;51.97;25.90;;;;;;;11.78;100.00;100977.56;2616523;31;20034;-62
2021/09/04 04:44:50;;;;;;;57.47;25.38;;;;;;;11.71;100.00;100984.25;2615171;36;20038;-61
2021/09/04 04:47:17;;;;;;;50.40;25.55;;;;;;;11.66;100.00;100982.41;2615635;31;20099;-56
2021/09/04 04:49:44;;;;;;;53.03;25.73;;;;;;;11.65;100.00;100985.78;2615300;36;20038;-59
2021/09/04 04:52:11;;;;;;;42.50;25.25;;;;;;;11.85;100.00;100992.31;2615977;31;20053;-61
2021/09/04 04:54:38;;;;;;;49.47;25.88;;;;;;;11.81;100.00;100992.19;2615943;31;20566;-59
2021/09/04 04:57:06;;;;;;;42.42;24.90;;;;;;;11.92;100.00;100990.75;2615912;31;20038;-62
2021/09/04 04:59:34;;;;;;;66.57;25.02;;;;;;;11.85;100.00;100988.91;2615986;31;20057;-61
2021/09/04 05:02:01;;;;;;;45.78;24.40;;;;;;;11.75;100.00;100986.91;2616252;31;20034;-56
2021/09/04 05:04:28;;;;;;;47.30;25.80;;;;;;;11.94;100.00;100994.25;2615949;31;20054;-61
2021/09/04 05:06:55;;;;;;;48.78;25.45;;;;;;;12.01;100.00;100983.28;2615757;36;20566;-58
2021/09/04 05:09:27;;;;;;;50.30;24.52;;;;;;;11.93;100.00;100988.25;2615887;31;20035;-61
2021/09/04 05:11:54;;;;;;;54.15;25.90;;;;;;;12.18;100.00;100979.44;2615345;36;20046;-58
2021/09/04 05:14:21;;;;;;;48.92;24.38;;;;;;;12.30;100.00;100983.16;2615189;36;20050;-58
2021/09/04 05:16:48;;;;;;;58.30;26.30;;;;;;;12.28;100.00;100982.22;2615371;36;20053;-60
2021/09/04 05:19:15;;;;;;;47.55;24.48;;;;;;;12.17;100.00;100989.69;2615064;36;20087;-57
2021/09/04 05:21:42;;;;;;;52.75;24.98;;;;;;;12.36;100.00;100988.41;2615874;31;20038;-59
2021/09/04 05:24:09;;;;;;;77.15;25.38;;;;;;;12.12;100.00;100988.72;2615519;31;20066;-58
2021/09/04 05:26:36;;;;;;;105.70;26.60;;;;;;;12.09;100.00;100993.75;2615276;36;20030;-57
2021/09/04 05:29:03;;;;;;;54.22;24.40;;;;;;;12.46;100.00;100998.94;2615156;36;20064;-59
2021/09/04 05:31:30;;;;;;;55.97;24.52;;;;;;;12.39;100.00;101001.34;2615224;36;20057;-61
2021/09/04 05:33:58;;;;;;;42.00;24.38;;;;;;;12.48;100.00;100999.84;2615061;36;20074;-51
2021/09/04 05:36:25;;;;;;;42.35;24.02;;;;;;;12.64;100.00;101002.75;2615385;31;20034;-50
2021/09/04 05:38:53;;;;;;;45.53;26.55;;;;;;;12.82;100.00;101008.28;2615022;36;20066;-49
2021/09/04 05:41:20;;;;;;;38.20;23.65;;;;;;;12.72;100.00;100996.94;2614990;31;20026;-50
2021/09/04 05:43:47;;;;;;;48.20;25.20;;;;;;;12.37;100.00;101002.97;2615341;31;20038;-54
2021/09/04 05:46:14;;;;;;;60.15;25.95;;;;;;;12.23;100.00;101006.09;2615842;31;20038;-54
2021/09/04 05:48:41;;;;;;;49.38;25.10;;;;;;;12.27;100.00;101006.19;2615463;31;20064;-49
2021/09/04 05:51:08;;;;;;;49.60;25.17;;;;;;;12.39;100.00;101004.78;2615518;31;20031;-51
2021/09/04 05:53:38;;;;;;;101.80;27.77;;;;;;;12.22;100.00;101004.38;2615240;31;20031;-51
2021/09/04 05:56:05;;;;;;;50.15;26.00;;;;;;;12.36;100.00;101004.69;2616401;31;20049;-49
2021/09/04 05:58:33;;;;;;;53.50;26.90;;;;;;;12.40;100.00;101006.50;2615068;36;20034;-51
2021/09/04 06:01:00;;;;;;;54.80;26.40;;;;;;;12.62;100.00;101007.88;2615018;36;20035;-55
2021/09/04 07:26:27;;;;;;;33.67;18.23;;;;;;;13.74;100.00;101041.03;2614963;36;20083;-50
2021/09/04 07:28:57;;;;;;;33.05;18.25;;;;;;;13.83;100.00;101046.34;2616542;36;20149;-50
2021/09/04 07:31:25;;;;;;;34.70;19.95;;;;;;;13.89;100.00;101053.31;2617376;36;20037;-52
2021/09/04 07:33:52;;;;;;;33.30;20.77;;;;;;;13.76;100.00;101045.34;2616056;36;20034;-45
2021/09/04 07:36:19;;;;;;;31.75;18.73;;;;;;;13.89;100.00;101048.16;2616105;31;20035;-48
2021/09/04 07:38:46;;;;;;;32.67;19.42;;;;;;;14.02;100.00;101048.41;2616519;31;20453;-46
2021/09/04 07:41:13;;;;;;;33.60;19.75;;;;;;;14.33;100.00;101053.19;2615933;36;20037;-51
2021/09/04 07:43:40;;;;;;;31.08;19.13;;;;;;;13.83;100.00;101060.94;2617273;31;20581;-45
2021/09/04 07:46:08;;;;;;;31.05;18.30;;;;;;;13.93;100.00;101060.25;2616683;31;20041;-46
2021/09/04 07:48:35;;;;;;;33.30;20.27;;;;;;;13.81;100.00;101060.88;2616703;31;20466;-52
2021/09/04 07:51:03;;;;;;;32.58;19.70;;;;;;;13.84;100.00;101055.78;2615337;31;20035;-51
2021/09/04 07:53:34;;;;;;;29.25;17.77;;;;;;;13.58;100.00;101069.88;2610809;36;20034;-49
2021/09/04 07:56:01;;;;;;;27.00;18.10;;;;;;;14.08;100.00;101070.81;2609567;36;20120;-55
2021/09/04 07:58:28;;;;;;;29.58;17.80;;;;;;;14.10;100.00;101073.44;2609698;36;20061;-50
2021/09/04 08:00:55;;;;;;;29.50;18.73;;;;;;;14.13;100.00;101073.47;2614476;31;20053;-50
2021/09/04 08:03:24;;;;;;;29.60;19.17;;;;;;;14.09;100.00;101071.66;2619904;31;20083;-49
2021/09/04 08:05:52;;;;;;;32.75;18.65;;;;;;;13.85;100.00;101082.41;2617654;31;20657;-50
2021/09/04 08:08:20;;;;;;;33.70;20.92;;;;;;;13.58;100.00;101082.72;2616187;31;20052;-46
2021/09/04 08:10:47;;;;;;;33.13;20.25;;;;;;;13.86;100.00;101077.28;2615927;31;20569;-47
2021/09/04 08:13:15;;;;;;;34.97;20.65;;;;;;;13.83;100.00;101076.38;2615329;36;20038;-49
2021/09/04 08:15:44;;;;;;;35.75;20.58;;;;;;;13.99;100.00;101081.81;2616047;36;20031;-47
2021/09/04 08:18:12;;;;;;;35.88;20.27;;;;;;;14.38;100.00;101087.63;2616426;31;20054;-50
2021/09/04 08:20:42;;;;;;;31.20;19.88;;;;;;;14.51;100.00;101089.59;2616534;36;20038;-47
2021/09/04 08:23:10;;;;;;;31.15;18.58;;;;;;;14.00;100.00;101099.03;2615475;36;20062;-46
2021/09/04 08:25:37;;;;;;;34.85;20.73;;;;;;;14.15;100.00;101101.00;2614919;36;20034;-46
2021/09/04 08:28:09;;;;;;;31.63;19.90;;;;;;;14.34;100.00;101093.59;2615263;31;20061;-50
2021/09/04 08:30:37;;;;;;;31.73;19.85;;;;;;;14.34;100.00;101097.03;2615199;36;20886;-45
2021/09/04 08:33:04;;;;;;;37.00;21.08;;;;;;;14.11;100.00;101094.03;2615541;31;20061;-46
2021/09/04 08:35:32;;;;;;;35.13;20.80;;;;;;;14.09;100.00;101095.72;2615633;31;20034;-46
2021/09/04 08:38:04;;;;;;;32.85;19.73;;;;;;;14.01;100.00;101092.16;2615183;31;20575;-47
2021/09/04 08:40:32;;;;;;;34.40;20.20;;;;;;;14.23;100.00;101096.81;2614928;36;20039;-46
2021/09/04 08:43:00;;;;;;;31.30;19.13;;;;;;;14.39;100.00;101097.09;2614559;36;20035;-46
2021/09/04 08:45:30;;;;;;;31.58;19.67;;;;;;;14.56;100.00;101092.22;2615538;31;20061;-49
2021/09/04 08:48:00;;;;;;;32.25;19.70;;;;;;;14.27;100.00;101095.16;2616973;31;20046;-47
2021/09/04 08:50:27;;;;;;;37.65;20.92;;;;;;;14.28;100.00;101102.06;2616394;36;20487;-52
2021/09/04 08:52:55;;;;;;;32.05;19.38;;;;;;;14.11;100.00;101099.19;2615466;36;20031;-48
2021/09/04 08:55:23;;;;;;;32.42;19.45;;;;;;;14.12;100.00;101107.78;2616133;31;20046;-50
2021/09/04 08:57:50;;;;;;;33.35;19.55;;;;;;;14.57;100.00;101115.47;2614915;36;20034;-49
2021/09/04 09:00:38;;;;;;;30.23;18.30;;;;;;;14.52;100.00;101112.81;2615385;36;20022;-46
2021/09/04 09:03:18;;;;;;;32.70;19.42;;;;;;;14.67;100.00;101111.31;2615741;36;20035;-47
2021/09/04 09:05:45;;;;;;;34.45;20.27;;;;;;;14.37;100.00;101112.50;2617299;31;20091;-45
2021/09/04 09:08:30;;;;;;;34.65;20.25;;;;;;;14.36;100.00;101120.22;2615588;36;20034;-47
2021/09/04 09:11:00;;;;;;;34.63;19.40;;;;;;;14.83;100.00;101117.56;2579948;36;2004578;-49
2021/09/04 09:13:28;;;;;;;34.20;18.85;;;;;;;15.07;100.00;101122.22;2615791;36;20054;-46
2021/09/04 09:15:56;;;;;;;31.70;18.73;;;;;;;14.93;100.00;101128.06;2615659;36;20748;-48
2021/09/04 09:18:28;;;;;;;29.83;19.05;;;;;;;14.71;100.00;101124.28;2616392;31;20139;-47
2021/09/04 09:21:00;;;;;;;33.80;20.30;;;;;;;14.52;100.00;101130.00;2615605;31;20038;-46
2021/09/04 09:23:28;;;;;;;36.97;19.60;;;;;;;14.72;100.00;101125.16;2615561;31;20057;-50
2021/09/04 09:26:06;;;;;;;29.52;18.88;;;;;;;15.01;100.00;101125.59;2615848;36;20067;-54
2021/09/04 09:28:33;;;;;;;33.85;19.33;;;;;;;15.42;100.00;101120.13;2615455;31;20063;-51
2021/09/04 09:31:00;;;;;;;33.03;19.63;;;;;;;15.00;100.00;101119.56;2616405;31;20181;-51
2021/09/04 09:33:28;;;;;;;31.40;18.60;;;;;;;15.09;100.00;101124.00;2615278;36;20030;-50
2021/09/04 09:35:57;;;;;;;27.95;18.42;;;;;;;15.32;100.00;101115.69;2614952;36;20565;-51
2021/09/04 09:38:32;;;;;;;31.50;18.40;;;;;;;15.37;100.00;101121.78;2615047;36;20072;-50
2021/09/04 09:41:00;;;;;;;31.00;18.45;;;;;;;15.53;100.00;101131.47;2613188;36;20035;-49
2021/09/04 09:43:35;;;;;;;32.17;19.02;;;;;;;15.49;100.00;101124.53;2613181;31;20038;-48
2021/09/04 09:46:05;;;;;;;29.98;18.60;;;;;;;15.79;100.00;101127.50;2611751;31;20030;-55
2021/09/04 09:48:34;;;;;;;32.00;19.25;;;;;;;16.09;100.00;101128.69;2611469;36;20034;-53
2021/09/04 09:51:05;;;;;;;30.25;18.77;;;;;;;16.30;100.00;101123.69;2612333;31;20034;-53
2021/09/04 09:53:32;;;;;;;31.60;19.30;;;;;;;16.58;100.00;101128.25;2612048;36;20057;-56
2021/09/04 09:56:00;;;;;;;33.53;20.35;;;;;;;16.56;100.00;101133.41;2612427;36;20038;-53
2021/09/04 09:58:28;;;;;;;30.77;19.58;;;;;;;16.79;100.00;101134.50;2613683;31;20113;-48
2021/09/04 10:00:58;;;;;;;30.00;18.55;;;;;;;16.32;100.00;101128.91;2613591;31;20069;-53
2021/09/04 10:03:28;;;;;;;35.45;20.38;;;;;;;16.06;100.00;101130.38;2615965;36;20030;-55
2021/09/04 10:05:58;;;;;;;31.38;19.80;;;;;;;15.53;100.00;101128.88;2614921;31;20078;-53
2021/09/04 10:08:26;;;;;;;33.92;19.38;;;;;;;16.10;100.00;101129.53;2614366;36;20061;-49
2021/09/04 10:10:53;;;;;;;30.25;20.20;;;;;;;16.42;100.00;101127.28;2614529;36;20045;-54
2021/09/04 10:13:21;;;;;;;29.38;19.23;;;;;;;16.75;100.00;101130.16;2615152;31;20057;-50
2021/09/04 10:15:51;;;;;;;29.33;20.10;;;;;;;16.63;100.00;101130.00;2615760;31;20030;-49
2021/09/04 10:18:24;;;;;;;32.03;19.38;;;;;;;16.39;100.00;101132.41;2615098;31;20076;-49
2021/09/04 10:21:09;;;;;;;30.10;19.17;;;;;;;16.45;100.00;101130.72;2615109;31;20034;-47
2021/09/04 10:23:39;;;;;;;26.65;18.33;;;;;;;16.82;100.00;101131.03;2615781;31;20038;-50
2021/09/04 10:26:32;;;;;;;31.33;18.95;;;;;;;16.26;100.00;101121.94;2615567;31;20038;-51
2021/09/04 10:29:04;;;;;;;27.35;18.50;;;;;;;16.93;100.00;101134.59;2577911;36;2004267;-46
2021/09/04 10:31:43;;;;;;;30.55;19.42;;;;;;;16.65;100.00;101124.88;2615731;31;20030;-49
2021/09/04 10:34:23;;;;;;;26.38;17.10;;;;;;;16.93;100.00;101120.78;2615105;36;20023;-48
2021/09/04 10:37:05;;;;;;;30.35;19.52;;;;;;;17.19;100.00;101121.78;2579231;36;2004394;-45
2021/09/04 10:40:07;;;;;;;28.48;18.90;;;;;;;16.93;100.00;101121.66;2614258;36;20027;-51
2021/09/04 10:42:40;;;;;;;29.65;19.52;;;;;;;16.84;100.00;101126.75;2578704;36;2004577;-48
2021/09/04 10:45:16;;;;;;;28.77;18.55;;;;;;;16.62;100.00;101130.00;2614347;36;20049;-45
2021/09/04 10:47:47;;;;;;;28.02;18.05;;;;;;;17.15;100.00;101127.84;2614610;36;20026;-49
2021/09/04 10:50:22;;;;;;;29.90;19.33;;;;;;;16.94;100.00;101120.78;2616369;36;20890;-48
2021/09/04 10:53:02;;;;;;;27.92;18.05;;;;;;;16.90;100.00;101121.63;2579484;31;2004605;-49
2021/09/04 10:55:33;;;;;;;29.55;18.77;;;;;;;16.59;100.00;101120.50;2615426;31;20042;-49
2021/09/04 10:58:14;;;;;;;31.35;20.20;;;;;;;16.51;100.00;101123.03;2615363;31;20179;-52
2021/09/04 11:00:49;;;;;;;31.20;18.55;;;;;;;16.65;100.00;101117.13;2615621;31;20035;-51
2021/09/04 11:03:23;;;;;;;28.38;17.83;;;;;;;16.52;100.00;101124.75;2614925;31;20151;-48
2021/09/04 11:06:01;;;;;;;29.00;17.92;;;;;;;16.53;100.00;101120.47;2578428;36;2004420;-46
2021/09/04 11:08:34;;;;;;;31.23;19.60;;;;;;;16.94;100.00;101125.97;2615037;31;20053;-53
2021/09/04 11:11:35;;;;;;;29.48;18.50;;;;;;;16.91;100.00;101120.75;2614371;36;20069;-53
2021/09/04 11:14:22;;;;;;;26.40;17.77;;;;;;;17.17;100.00;101133.88;2578614;36;2004431;-48
2021/09/04 11:16:53;;;;;;;30.60;17.70;;;;;;;17.50;100.00;101130.59;2579457;36;2004492;-52
2021/09/04 11:19:27;;;;;;;26.40;16.80;;;;;;;17.35;100.00;101125.34;2615758;31;20038;-51
2021/09/04 11:21:57;;;;;;;26.58;17.58;;;;;;;16.62;100.00;101137.78;2616354;31;20419;-51
2021/09/04 11:24:30;;;;;;;32.35;18.55;;;;;;;16.33;100.00;101132.34;2614175;36;20586;-45
2021/09/04 11:27:11;;;;;;;31.23;19.38;;;;;;;16.81;100.00;101134.50;2615710;31;20041;-51
2021/09/04 11:29:53;;;;;;;26.20;17.30;;;;;;;17.37;100.00;101135.69;2614755;31;20043;-45
2021/09/04 11:32:23;;;;;;;31.27;19.38;;;;;;;16.79;100.00;101138.81;2578763;36;2004562;-50
2021/09/04 11:34:55;;;;;;;26.95;17.67;;;;;;;16.77;100.00;101131.00;2616313;31;20069;-49
2021/09/04 11:37:34;;;;;;;29.83;18.42;;;;;;;17.20;100.00;101139.06;2615139;36;20450;-50
2021/09/04 11:40:12;;;;;;;31.13;19.05;;;;;;;17.16;100.00;101134.75;2615248;36;20458;-51
2021/09/04 11:42:44;;;;;;;28.95;18.42;;;;;;;17.25;100.00;101137.38;2614924;31;20477;-46
2021/09/04 11:45:16;;;;;;;32.88;21.20;;;;;;;16.63;100.00;101131.72;2615628;31;20031;-50
2021/09/04 11:47:49;;;;;;;34.75;20.30;;;;;;;16.99;100.00;101133.75;2615264;36;20037;-46
2021/09/04 11:50:23;;;;;;;35.80;21.10;;;;;;;17.10;100.00;101139.88;2615330;31;20043;-48
2021/09/04 11:52:50;;;;;;;30.30;19.25;;;;;;;17.49;100.00;101138.34;2578972;36;2004342;-49
2021/09/04 11:55:27;;;;;;;32.63;20.30;;;;;;;17.08;100.00;101132.94;2614780;36;20037;-47
2021/09/04 11:57:58;;;;;;;32.22;19.38;;;;;;;16.80;100.00;101127.59;2579027;36;2004290;-51
2021/09/04 12:00:34;;;;;;;31.25;18.30;;;;;;;17.10;100.00;101133.81;2615724;31;20038;-46
2021/09/04 12:03:03;;;;;;;29.10;18.60;;;;;;;17.31;100.00;101132.22;2615538;36;20064;-49
2021/09/04 12:05:41;;;;;;;30.67;19.92;;;;;;;18.25;97.77;101130.81;2615124;36;20035;-45
2021/09/04 12:08:16;;;;;;;32.13;19.23;;;;;;;18.83;95.07;101135.19;2614872;36;20168;-46
2021/09/04 12:10:45;;;;;;;30.23;18.77;;;;;;;19.24;96.54;101127.31;2616000;31;20038;-52
2021/09/04 12:13:21;;;;;;;30.60;18.23;;;;;;;18.42;100.00;101129.97;2616487;31;20464;-46
2021/09/04 12:15:54;;;;;;;26.10;17.52;;;;;;;17.84;100.00;101135.03;2615515;36;20054;-46
2021/09/04 12:18:34;;;;;;;26.70;16.20;;;;;;;18.05;100.00;101127.34;2579611;36;2004431;-51
2021/09/04 12:21:21;;;;;;;28.10;16.88;;;;;;;17.63;100.00;101128.91;2615622;36;20038;-49
2021/09/04 12:23:51;;;;;;;27.35;18.35;;;;;;;17.89;100.00;101131.63;2615985;36;20912;-50
2021/09/04 12:26:18;;;;;;;29.55;18.10;;;;;;;17.64;100.00;101137.53;2615503;36;20065;-53
2021/09/04 12:28:46;;;;;;;29.10;17.52;;;;;;;17.83;100.00;101136.78;2615206;36;20035;-47
2021/09/04 12:31:21;;;;;;;30.77;17.92;;;;;;;17.49;100.00;101133.16;2615218;36;20026;-46
2021/09/04 12:33:51;;;;;;;;;;;;;;;17.48;100.00;101137.50;2579445;36;2004569;-52
2021/09/04 12:36:28;;;;;;;30.45;17.92;;;;;;;17.55;100.00;101128.88;2616558;31;19954;-49
2021/09/04 12:38:58;;;;;;;28.92;16.73;;;;;;;17.52;100.00;101130.59;2580469;31;2004608;-52
2021/09/04 12:41:33;;;;;;;28.15;17.38;;;;;;;17.75;100.00;101133.31;2616071;31;20037;-48
2021/09/04 12:44:03;;;;;;;29.10;17.85;;;;;;;17.60;100.00;101128.88;2615133;36;20580;-50
2021/09/04 12:46:37;;;;;;;25.90;16.83;;;;;;;17.34;100.00;101133.97;2613885;36;20945;-53
2021/09/04 12:49:35;;;;;;;26.83;16.45;;;;;;;17.62;100.00;101134.09;2616028;31;20039;-51
2021/09/04 12:52:05;;;;;;;27.52;17.83;;;;;;;17.84;100.00;101132.44;2578907;31;2004590;-47
2021/09/04 12:54:53;;;;;;;29.77;16.60;;;;;;;18.61;100.00;101128.25;2614626;36;20063;-49
2021/09/04 12:57:36;;;;;;;26.42;17.45;;;;;;;18.65;99.51;101130.84;2579310;36;2004410;-47
2021/09/04 13:00:26;;;;;;;28.92;17.20;;;;;;;17.88;100.00;101129.88;2616301;36;20031;-50
2021/09/04 13:02:54;;;;;;;32.53;16.38;;;;;;;18.00;100.00;101131.66;2582733;31;2004386;-49
2021/09/04 13:05:23;;;;;;;26.38;17.27;;;;;;;17.90;100.00;101129.91;2615398;36;20042;-49
2021/09/04 13:07:57;;;;;;;22.45;15.20;;;;;;;18.13;100.00;101125.63;2615403;36;20030;-50
2021/09/04 13:10:27;;;;;;;25.83;16.00;;;;;;;18.07;100.00;101123.00;2615582;31;20571;-47
2021/09/04 13:12:54;;;;;;;25.80;15.05;;;;;;;18.24;100.00;101129.09;2616374;36;20602;-49
2021/09/04 13:15:22;;;;;;;25.33;15.60;;;;;;;18.38;100.00;101125.66;2617952;31;20054;-55
2021/09/04 13:17:50;;;;;;;26.38;15.27;;;;;;;18.31;100.00;101125.66;2615577;36;20126;-49
2021/09/04 13:20:18;;;;;;;28.70;16.17;;;;;;;18.32;99.11;101122.19;2616485;36;20030;-50
2021/09/04 13:22:46;;;;;;;25.23;15.85;;;;;;;18.43;98.47;101119.59;2614509;36;20041;-51
2021/09/04 13:25:15;;;;;;;27.20;15.43;;;;;;;18.90;97.36;101123.91;2614778;31;20030;-54
2021/09/04 13:27:44;;;;;;;20.67;15.10;;;;;;;20.29;91.73;101122.44;2615072;36;20037;-51
2021/09/04 13:30:16;;;;;;;25.77;15.30;;;;;;;21.56;84.97;101126.47;2613178;31;20030;-51
2021/09/04 13:32:44;;;;;;;22.08;15.07;;;;;;;21.38;82.14;101127.53;2614143;31;20031;-51
2021/09/04 13:35:15;;;;;;;23.98;15.95;;;;;;;20.38;86.41;101121.53;2614861;31;20070;-52
2021/09/04 13:37:43;;;;;;;25.83;15.93;;;;;;;19.47;90.47;101119.44;2615032;36;20030;-51
2021/09/04 13:40:10;;;;;;;20.75;14.38;;;;;;;19.48;91.91;101118.56;2616404;36;20037;-54
2021/09/04 13:42:37;;;;;;;23.33;15.93;;;;;;;19.23;90.78;101114.34;2615784;31;20458;-48
2021/09/04 13:45:07;;;;;;;26.77;16.63;;;;;;;19.24;93.25;101121.25;2615847;31;20041;-48
2021/09/04 13:47:35;;;;;;;25.27;15.70;;;;;;;19.83;88.65;101121.03;2616231;31;21013;-50
2021/09/04 13:50:03;;;;;;;26.73;15.50;;;;;;;19.18;94.64;101111.75;2616125;31;20046;-48
2021/09/04 13:52:30;;;;;;;24.45;15.30;;;;;;;19.53;93.35;101119.41;2615871;31;20035;-46
2021/09/04 13:54:57;;;;;;;23.23;15.77;;;;;;;18.77;95.64;101107.53;2615628;36;20038;-50
2021/09/04 13:57:24;;;;;;;24.52;14.90;;;;;;;19.84;90.87;101111.50;2616715;31;20105;-48
2021/09/04 13:59:51;;;;;;;24.13;14.77;;;;;;;19.87;90.48;101105.41;2615453;36;20031;-51
2021/09/04 14:02:18;;;;;;;22.92;15.32;;;;;;;19.95;89.78;101112.28;2615665;36;20438;-45